createdAt,value
2019-02-26T00:01:28.577Z,4.62
2019-02-26T00:03:57.077Z,4.57
2019-02-26T00:06:27.924Z,4.54
2019-02-26T00:08:59.528Z,4.51
2019-02-26T00:11:29.005Z,4.46
2019-02-26T00:13:59.065Z,4.43
2019-02-26T00:16:28.208Z,4.37
2019-02-26T00:19:00.683Z,4.27
2019-02-26T00:21:29.254Z,4.17
2019-02-26T00:23:59.016Z,4.10
2019-02-26T00:26:28.152Z,4.10
2019-02-26T00:28:59.645Z,4.09
2019-02-26T00:31:30.182Z,4.07
2019-02-26T00:33:59.037Z,4.05
2019-02-26T00:36:29.735Z,4.03
2019-02-26T00:39:00.714Z,4.03
2019-02-26T00:41:31.854Z,4.01
2019-02-26T00:44:02.239Z,3.96
2019-02-26T00:46:32.513Z,3.95
2019-02-26T00:49:03.188Z,3.90
2019-02-26T00:51:33.437Z,3.86
2019-02-26T00:54:04.112Z,3.84
2019-02-26T00:56:34.053Z,3.83
2019-02-26T00:59:04.423Z,3.81
2019-02-26T01:01:33.568Z,3.80
2019-02-26T01:04:02.835Z,3.77
2019-02-26T01:06:33.509Z,3.72
2019-02-26T01:09:05.529Z,3.68
2019-02-26T01:11:34.021Z,3.65
2019-02-26T01:14:03.189Z,3.58
2019-02-26T01:16:32.350Z,3.51
2019-02-26T01:19:01.488Z,3.48
2019-02-26T01:21:31.120Z,3.46
2019-02-26T01:24:02.423Z,3.44
2019-02-26T01:26:32.409Z,3.43
2019-02-26T01:29:01.567Z,3.40
2019-02-26T01:31:32.099Z,3.38
2019-02-26T01:34:01.554Z,3.36
2019-02-26T01:36:30.709Z,3.33
2019-02-26T01:38:59.855Z,3.28
2019-02-26T01:41:29.004Z,3.27
2019-02-26T01:43:58.163Z,3.27
2019-02-26T01:46:27.288Z,3.25
2019-02-26T01:48:57.564Z,3.25
2019-02-26T01:51:28.651Z,3.24
2019-02-26T01:53:57.895Z,3.23
2019-02-26T01:56:27.006Z,3.19
2019-02-26T01:58:57.091Z,3.04
2019-02-26T02:01:27.061Z,3.04
2019-02-26T02:03:56.464Z,3.02
2019-02-26T02:06:25.837Z,3.02
2019-02-26T02:08:55.737Z,3.03
2019-02-26T02:11:28.430Z,3.03
2019-02-26T02:13:55.811Z,3.01
2019-02-26T02:16:27.298Z,2.98
2019-02-26T02:18:57.557Z,2.98
2019-02-26T02:21:29.084Z,2.99
2019-02-26T02:23:57.623Z,3.01
2019-02-26T02:26:26.772Z,3.03
2019-02-26T02:28:55.920Z,3.02
2019-02-26T02:31:27.105Z,2.97
2019-02-26T02:33:55.938Z,2.93
2019-02-26T02:36:26.477Z,2.77
2019-02-26T02:38:55.991Z,2.77
2019-02-26T02:41:25.098Z,2.72
2019-02-26T02:43:54.270Z,2.71
2019-02-26T02:46:23.393Z,2.69
2019-02-26T02:48:52.557Z,2.70
2019-02-26T02:51:21.720Z,2.69
2019-02-26T02:53:53.543Z,2.66
2019-02-26T02:56:21.714Z,2.58
2019-02-26T02:58:51.612Z,2.56
2019-02-26T03:01:24.435Z,2.55
2019-02-26T03:03:53.659Z,2.57
2019-02-26T03:06:24.275Z,2.55
2019-02-26T03:08:53.755Z,2.55
2019-02-26T03:11:22.884Z,2.53
2019-02-26T03:13:53.853Z,2.51
2019-02-26T03:16:25.071Z,2.47
2019-02-26T03:18:54.102Z,2.43
2019-02-26T03:21:24.819Z,2.41
2019-02-26T03:23:54.135Z,2.41
2019-02-26T03:26:25.314Z,2.40
2019-02-26T03:28:54.172Z,2.40
2019-02-26T03:31:28.684Z,2.42
2019-02-26T03:33:59.950Z,2.36
2019-02-26T03:36:25.400Z,2.36
2019-02-26T03:38:56.607Z,2.38
2019-02-26T03:41:26.411Z,2.39
2019-02-26T03:43:58.479Z,2.38
2019-02-26T03:46:27.154Z,2.34
2019-02-26T03:48:56.291Z,2.30
2019-02-26T03:51:25.448Z,2.26
2019-02-26T03:53:54.597Z,2.23
2019-02-26T03:56:23.750Z,2.21
2019-02-26T03:58:56.914Z,2.20
2019-02-26T04:01:23.735Z,2.18
2019-02-26T04:03:54.598Z,2.18
2019-02-26T04:06:24.004Z,2.17
2019-02-26T04:08:55.834Z,2.15
2019-02-26T04:11:25.621Z,2.12
2019-02-26T04:13:56.704Z,2.11
2019-02-26T04:16:26.018Z,2.08
2019-02-26T04:18:55.289Z,2.07
2019-02-26T04:21:25.839Z,2.07
2019-02-26T04:23:54.992Z,2.07
2019-02-26T04:26:50.344Z,2.05
2019-02-26T04:29:46.054Z,2.04
2019-02-26T04:33:03.958Z,1.99
2019-02-26T04:35:52.751Z,1.95
2019-02-26T04:38:40.818Z,1.91
2019-02-26T04:41:28.216Z,1.86
2019-02-26T04:44:58.876Z,1.83
2019-02-26T04:47:33.703Z,1.82
2019-02-26T04:50:05.483Z,1.80
2019-02-26T04:52:35.767Z,1.79
2019-02-26T04:55:04.704Z,1.76
2019-02-26T04:57:34.172Z,1.75
2019-02-26T05:00:05.235Z,1.73
2019-02-26T05:02:34.268Z,1.70
2019-02-26T05:05:03.391Z,1.67
2019-02-26T05:07:35.602Z,1.67
2019-02-26T05:10:05.521Z,1.65
2019-02-26T05:12:37.107Z,1.60
2019-02-26T05:15:05.921Z,1.59
2019-02-26T05:17:35.108Z,1.57
2019-02-26T05:20:08.754Z,1.55
2019-02-26T05:22:35.355Z,1.50
2019-02-26T05:25:06.899Z,1.48
2019-02-26T05:27:36.341Z,1.44
2019-02-26T05:30:07.089Z,1.44
2019-02-26T05:32:37.302Z,1.41
2019-02-26T05:35:06.501Z,1.39
2019-02-26T05:37:40.236Z,1.38
2019-02-26T05:40:09.206Z,1.36
2019-02-26T05:42:37.434Z,1.35
2019-02-26T05:45:09.386Z,1.34
2019-02-26T05:47:37.881Z,1.30
2019-02-26T05:50:13.067Z,1.29
2019-02-26T05:52:37.978Z,1.27
2019-02-26T05:55:07.191Z,1.27
2019-02-26T05:57:36.326Z,1.24
2019-02-26T06:00:08.344Z,1.22
2019-02-26T06:02:44.269Z,1.18
2019-02-26T06:05:12.350Z,1.15
2019-02-26T06:07:42.393Z,1.11
2019-02-26T06:10:11.558Z,1.09
2019-02-26T06:12:43.624Z,1.09
2019-02-26T06:15:11.604Z,1.11
2019-02-26T06:17:43.216Z,1.09
2019-02-26T06:20:15.023Z,1.02
2019-02-26T06:22:44.174Z,0.93
2019-02-26T06:25:18.665Z,0.86
2019-02-26T06:27:44.179Z,0.83
2019-02-26T06:30:13.949Z,0.84
2019-02-26T06:32:44.716Z,0.89
2019-02-26T06:35:16.497Z,0.93
2019-02-26T06:37:46.583Z,0.98
2019-02-26T06:40:15.756Z,1.03
2019-02-26T06:42:44.903Z,1.08
2019-02-26T06:45:16.631Z,1.11
2019-02-26T06:47:45.658Z,1.18
2019-02-26T06:50:18.559Z,1.29
2019-02-26T06:52:47.641Z,1.59
2019-02-26T06:55:17.662Z,2.23
2019-02-26T06:57:49.765Z,2.96
2019-02-26T07:00:19.523Z,3.63
2019-02-26T07:02:49.008Z,4.11
2019-02-26T07:05:18.266Z,4.96
2019-02-26T07:07:47.408Z,5.51
2019-02-26T07:10:21.473Z,6.05
2019-02-26T07:12:48.708Z,6.03
2019-02-26T07:15:18.245Z,5.94
2019-02-26T07:17:47.380Z,6.72
2019-02-26T07:20:16.502Z,8.23
2019-02-26T07:22:47.337Z,9.52
2019-02-26T07:25:18.676Z,10.10
2019-02-26T07:27:47.413Z,10.62
2019-02-26T07:30:16.541Z,10.61
2019-02-26T07:32:48.183Z,10.77
2019-02-26T07:35:16.917Z,11.68
2019-02-26T07:37:46.147Z,12.94
2019-02-26T07:40:16.121Z,13.98
2019-02-26T07:42:48.966Z,14.74
2019-02-26T07:45:19.754Z,14.95
2019-02-26T07:48:09.235Z,14.86
2019-02-26T07:50:41.550Z,14.98
2019-02-26T07:53:09.261Z,15.32
2019-02-26T07:55:41.940Z,15.58
2019-02-26T07:58:11.060Z,15.68
2019-02-26T08:00:42.326Z,15.77
2019-02-26T08:03:11.108Z,15.58
2019-02-26T08:05:40.294Z,15.21
2019-02-26T08:08:10.304Z,14.87
2019-02-26T08:10:42.859Z,14.50
2019-02-26T08:13:11.175Z,14.14
2019-02-26T08:15:40.370Z,14.14
2019-02-26T08:18:09.535Z,14.47
2019-02-26T08:20:40.286Z,14.71
2019-02-26T08:23:09.562Z,14.95
2019-02-26T08:25:38.692Z,15.15
2019-02-26T08:28:07.899Z,15.32
2019-02-26T08:30:40.183Z,15.66
2019-02-26T08:33:07.898Z,16.22
2019-02-26T08:35:37.075Z,16.66
2019-02-26T08:38:06.442Z,16.88
2019-02-26T08:40:35.559Z,17.05
2019-02-26T08:43:04.727Z,17.43
2019-02-26T08:45:33.859Z,17.85
2019-02-26T08:48:02.992Z,17.90
2019-02-26T08:50:33.277Z,17.63
2019-02-26T08:53:03.614Z,17.75
2019-02-26T08:55:32.791Z,18.25
2019-02-26T08:58:01.934Z,18.71
2019-02-26T09:00:31.123Z,19.14
2019-02-26T09:03:00.275Z,19.56
2019-02-26T09:05:31.743Z,18.87
2019-02-26T09:08:00.366Z,20.50
2019-02-26T09:10:29.510Z,20.33
2019-02-26T09:12:58.647Z,21.93
2019-02-26T09:15:29.280Z,22.44
2019-02-26T09:17:58.646Z,22.73
2019-02-26T09:20:27.872Z,22.94
2019-02-26T09:22:59.674Z,22.73
2019-02-26T09:25:28.691Z,22.63
2019-02-26T09:27:58.744Z,22.78
2019-02-26T09:30:28.788Z,22.69
2019-02-26T09:33:00.854Z,22.31
2019-02-26T09:35:31.312Z,22.21
2019-02-26T09:38:00.970Z,21.90
2019-02-26T09:40:34.197Z,21.55
2019-02-26T09:43:01.121Z,21.39
2019-02-26T09:45:30.398Z,21.32
2019-02-26T09:48:01.223Z,21.62
2019-02-26T09:50:30.474Z,21.96
2019-02-26T09:52:59.641Z,22.33
2019-02-26T09:55:28.779Z,22.50
2019-02-26T09:57:57.951Z,22.97
2019-02-26T10:00:29.491Z,23.35
2019-02-26T10:02:58.804Z,23.07
2019-02-26T10:05:27.967Z,22.26
2019-02-26T10:07:59.976Z,22.46
2019-02-26T10:10:30.840Z,22.74
2019-02-26T10:13:01.460Z,23.13
2019-02-26T10:15:29.697Z,23.49
2019-02-26T10:18:01.481Z,23.54
2019-02-26T10:20:31.810Z,23.15
2019-02-26T10:23:03.528Z,22.88
2019-02-26T10:25:34.274Z,22.81
2019-02-26T10:28:05.715Z,22.55
2019-02-26T10:30:35.903Z,22.34
2019-02-26T10:33:05.682Z,22.08
2019-02-26T10:35:36.249Z,21.79
2019-02-26T10:38:08.177Z,21.55
2019-02-26T10:40:50.176Z,21.15
2019-02-26T10:43:07.582Z,20.94
2019-02-26T10:45:41.545Z,20.95
2019-02-26T10:48:07.598Z,21.03
2019-02-26T10:50:38.921Z,20.98
2019-02-26T10:53:10.722Z,20.74
2019-02-26T10:55:41.591Z,20.49
2019-02-26T10:58:12.158Z,20.29
2019-02-26T11:00:40.749Z,20.25
2019-02-26T11:03:12.931Z,20.28
2019-02-26T11:05:42.629Z,20.28
2019-02-26T11:08:11.677Z,20.24
2019-02-26T11:10:43.979Z,20.29
2019-02-26T11:13:12.987Z,20.16
2019-02-26T11:15:42.558Z,20.25
2019-02-26T11:18:14.863Z,20.39
2019-02-26T11:20:42.587Z,20.56
2019-02-26T11:23:13.731Z,20.46
2019-02-26T11:25:42.644Z,20.36
2019-02-26T11:28:13.079Z,20.17
2019-02-26T11:30:44.307Z,20.26
2019-02-26T11:33:15.458Z,20.36
2019-02-26T11:35:46.298Z,20.45
2019-02-26T11:38:16.976Z,20.36
2019-02-26T11:40:45.846Z,20.35
2019-02-26T11:43:17.039Z,20.28
2019-02-26T11:45:45.884Z,20.34
2019-02-26T11:48:15.058Z,20.35
2019-02-26T11:50:45.134Z,20.41
2019-02-26T11:53:14.382Z,20.42
2019-02-26T11:55:43.547Z,20.46
2019-02-26T11:58:15.725Z,20.58
2019-02-26T12:00:50.557Z,20.70
2019-02-26T12:03:22.799Z,20.79
2019-02-26T12:05:53.522Z,20.82
2019-02-26T12:08:22.876Z,20.78
2019-02-26T12:10:57.490Z,20.77
2019-02-26T12:13:25.057Z,20.73
2019-02-26T12:15:54.784Z,20.65
2019-02-26T12:18:23.931Z,20.66
2019-02-26T12:20:53.099Z,20.71
2019-02-26T12:23:22.830Z,20.74
2019-02-26T12:25:53.632Z,20.78
2019-02-26T12:28:25.179Z,20.75
2019-02-26T12:30:53.776Z,20.69
2019-02-26T12:33:22.931Z,20.63
2019-02-26T12:35:52.122Z,20.59
2019-02-26T12:38:21.521Z,20.60
2019-02-26T12:40:53.416Z,20.66
2019-02-26T12:43:21.524Z,20.57
2019-02-26T12:45:51.894Z,20.58
2019-02-26T12:48:22.788Z,20.59
2019-02-26T12:50:55.412Z,20.56
2019-02-26T12:53:23.714Z,20.54
2019-02-26T12:55:54.240Z,20.46
2019-02-26T12:58:26.794Z,20.46
2019-02-26T13:00:54.644Z,20.46
2019-02-26T13:03:23.836Z,20.46
2019-02-26T13:05:53.005Z,20.56
2019-02-26T13:08:24.179Z,20.58
2019-02-26T13:10:57.762Z,20.53
2019-02-26T13:13:24.030Z,20.49
2019-02-26T13:15:53.215Z,20.36
2019-02-26T13:18:22.377Z,20.35
2019-02-26T13:20:56.766Z,20.46
2019-02-26T13:23:22.447Z,20.54
2019-02-26T13:25:51.603Z,20.62
2019-02-26T13:28:20.819Z,20.69
2019-02-26T13:30:50.021Z,20.68
2019-02-26T13:33:23.423Z,20.64
2019-02-26T13:35:56.462Z,20.72
2019-02-26T13:38:24.523Z,20.72
2019-02-26T13:40:51.950Z,20.79
2019-02-26T13:43:21.180Z,20.85
2019-02-26T13:45:50.522Z,20.80
2019-02-26T13:48:21.210Z,20.81
2019-02-26T13:50:50.468Z,20.74
2019-02-26T13:53:19.640Z,20.80
2019-02-26T13:55:51.153Z,20.76
2019-02-26T13:58:20.331Z,20.74
2019-02-26T14:00:49.516Z,20.76
2019-02-26T14:03:18.833Z,20.74
2019-02-26T14:05:47.987Z,20.70
2019-02-26T14:08:17.181Z,20.66
2019-02-26T14:10:46.405Z,20.60
2019-02-26T14:13:15.567Z,20.47
2019-02-26T14:15:44.776Z,20.39
2019-02-26T14:18:13.951Z,20.35
2019-02-26T14:20:43.185Z,20.30
2019-02-26T14:23:12.339Z,20.23
2019-02-26T14:25:41.540Z,20.14
2019-02-26T14:28:10.679Z,20.03
2019-02-26T14:30:40.098Z,19.99
2019-02-26T14:33:09.271Z,19.89
2019-02-26T14:35:38.487Z,19.86
2019-02-26T14:38:07.863Z,19.81
2019-02-26T14:40:37.022Z,19.78
2019-02-26T14:43:06.195Z,19.73
2019-02-26T14:45:35.393Z,19.70
2019-02-26T14:48:04.563Z,19.63
2019-02-26T14:50:33.748Z,19.61
2019-02-26T14:53:02.964Z,19.63
2019-02-26T14:55:32.282Z,19.61
2019-02-26T14:58:01.460Z,19.61
2019-02-26T15:00:30.652Z,19.56
2019-02-26T15:02:59.816Z,19.55
2019-02-26T15:05:29.072Z,19.55
2019-02-26T15:07:58.234Z,19.55
2019-02-26T15:10:29.463Z,19.46
2019-02-26T15:12:58.862Z,19.42
2019-02-26T15:15:28.009Z,19.37
2019-02-26T15:17:57.293Z,19.31
2019-02-26T15:20:26.604Z,19.25
2019-02-26T15:22:55.842Z,19.20
2019-02-26T15:25:25.038Z,19.17
2019-02-26T15:28:04.666Z,19.11
2019-02-26T15:30:28.247Z,19.08
2019-02-26T15:32:57.487Z,18.97
2019-02-26T15:35:26.918Z,18.80
2019-02-26T15:37:56.079Z,18.69
2019-02-26T15:40:26.897Z,18.56
2019-02-26T15:42:56.435Z,18.44
2019-02-26T15:45:25.704Z,18.36
2019-02-26T15:47:54.882Z,18.20
2019-02-26T15:50:24.342Z,18.08
2019-02-26T15:52:53.729Z,17.95
2019-02-26T15:55:22.865Z,17.81
2019-02-26T15:57:52.901Z,17.65
2019-02-26T16:00:22.686Z,17.51
2019-02-26T16:02:52.161Z,17.46
2019-02-26T16:05:22.812Z,17.35
2019-02-26T16:07:51.989Z,17.22
2019-02-26T16:10:22.076Z,17.12
2019-02-26T16:12:52.068Z,16.96
2019-02-26T16:15:21.236Z,16.80
2019-02-26T16:17:50.530Z,16.68
2019-02-26T16:20:20.182Z,16.55
2019-02-26T16:22:49.476Z,16.40
2019-02-26T16:25:18.700Z,16.23
2019-02-26T16:27:47.863Z,16.08
2019-02-26T16:30:19.090Z,15.93
2019-02-26T16:32:48.994Z,15.79
2019-02-26T16:35:18.326Z,15.66
2019-02-26T16:37:47.496Z,15.51
2019-02-26T16:40:16.743Z,15.42
2019-02-26T16:42:46.165Z,15.31
2019-02-26T16:45:17.549Z,15.18
2019-02-26T16:47:48.723Z,15.06
2019-02-26T16:50:19.135Z,14.96
2019-02-26T16:52:48.326Z,14.88
2019-02-26T16:55:17.736Z,14.76
2019-02-26T16:57:47.471Z,14.69
2019-02-26T17:00:20.915Z,14.57
2019-02-26T17:02:50.149Z,14.44
2019-02-26T17:05:22.566Z,14.31
2019-02-26T17:07:51.753Z,14.19
2019-02-26T17:10:21.021Z,14.01
2019-02-26T17:12:52.817Z,13.91
2019-02-26T17:15:26.724Z,13.81
2019-02-26T17:17:54.577Z,13.65
2019-02-26T17:20:26.270Z,13.56
2019-02-26T17:22:55.374Z,13.44
2019-02-26T17:25:27.420Z,13.33
2019-02-26T17:27:55.519Z,13.27
2019-02-26T17:30:24.868Z,13.18
2019-02-26T17:32:54.027Z,12.99
2019-02-26T17:35:23.384Z,12.82
2019-02-26T17:37:52.548Z,12.67
2019-02-26T17:40:21.792Z,12.56
2019-02-26T17:42:51.849Z,12.45
2019-02-26T17:45:21.188Z,12.33
2019-02-26T17:47:50.379Z,12.24
2019-02-26T17:50:22.341Z,12.13
2019-02-26T17:52:51.698Z,12.01
2019-02-26T17:55:26.505Z,11.91
2019-02-26T17:57:54.814Z,11.81
2019-02-26T18:00:27.504Z,11.65
2019-02-26T18:02:56.705Z,11.54
2019-02-26T18:05:25.937Z,11.39
2019-02-26T18:07:55.143Z,11.25
2019-02-26T18:10:24.443Z,11.14
2019-02-26T18:12:54.097Z,11.12
2019-02-26T18:15:23.468Z,11.08
2019-02-26T18:17:52.657Z,10.98
2019-02-26T18:20:21.835Z,10.86
2019-02-26T18:22:51.048Z,10.77
2019-02-26T18:25:20.369Z,10.66
2019-02-26T18:27:51.776Z,10.55
2019-02-26T18:30:22.169Z,10.46
2019-02-26T18:32:55.246Z,10.40
2019-02-26T18:35:22.246Z,10.38
2019-02-26T18:37:51.748Z,10.32
2019-02-26T18:40:21.159Z,10.24
2019-02-26T18:42:50.402Z,10.11
2019-02-26T18:45:27.514Z,10.02
2019-02-26T18:47:55.091Z,9.93
2019-02-26T18:50:25.884Z,9.85
2019-02-26T18:52:55.642Z,9.77
2019-02-26T18:55:27.945Z,9.72
2019-02-26T18:57:55.746Z,9.64
2019-02-26T19:00:26.490Z,9.55
2019-02-26T19:02:55.778Z,9.47
2019-02-26T19:05:25.014Z,9.42
2019-02-26T19:07:54.204Z,9.33
2019-02-26T19:10:23.369Z,9.25
2019-02-26T19:12:52.634Z,9.15
2019-02-26T19:15:21.945Z,9.09
2019-02-26T19:17:52.438Z,8.97
2019-02-26T19:20:23.944Z,8.90
2019-02-26T19:22:53.342Z,8.82
2019-02-26T19:25:22.671Z,8.78
2019-02-26T19:27:53.095Z,8.72
2019-02-26T19:30:22.938Z,8.64
2019-02-26T19:32:52.121Z,8.57
2019-02-26T19:35:21.336Z,8.48
2019-02-26T19:37:54.716Z,8.41
2019-02-26T19:40:25.683Z,8.32
2019-02-26T19:43:00.555Z,8.22
2019-02-26T19:45:28.834Z,8.12
2019-02-26T19:47:58.062Z,8.04
2019-02-26T19:50:27.393Z,8.02
2019-02-26T19:52:57.463Z,8.02
2019-02-26T19:55:30.378Z,7.99
2019-02-26T19:58:02.889Z,7.97
2019-02-26T20:00:30.573Z,7.85
2019-02-26T20:02:59.990Z,7.72
2019-02-26T20:05:29.144Z,7.61
2019-02-26T20:07:58.383Z,7.53
2019-02-26T20:10:27.662Z,7.51
2019-02-26T20:13:00.580Z,7.50
2019-02-26T20:15:28.121Z,7.49
2019-02-26T20:17:57.589Z,7.45
2019-02-26T20:20:26.825Z,7.43
2019-02-26T20:22:56.050Z,7.42
2019-02-26T20:25:25.425Z,7.39
2019-02-26T20:27:57.411Z,7.36
2019-02-26T20:30:25.770Z,7.33
2019-02-26T20:32:55.435Z,7.28
2019-02-26T20:35:24.956Z,7.20
2019-02-26T20:37:54.226Z,7.14
2019-02-26T20:40:23.471Z,7.08
2019-02-26T20:42:52.654Z,7.03
2019-02-26T20:45:22.776Z,7.00
2019-02-26T20:47:52.178Z,6.96
2019-02-26T20:50:23.885Z,6.90
2019-02-26T20:52:52.784Z,6.86
2019-02-26T20:55:22.350Z,6.82
2019-02-26T20:57:51.636Z,6.76
2019-02-26T21:00:24.930Z,6.67
2019-02-26T21:02:52.489Z,6.56
2019-02-26T21:05:22.076Z,6.49
2019-02-26T21:07:51.353Z,6.43
2019-02-26T21:10:20.642Z,6.37
2019-02-26T21:12:49.966Z,6.32
2019-02-26T21:15:19.356Z,6.28
2019-02-26T21:17:48.583Z,6.26
2019-02-26T21:20:17.729Z,6.22
2019-02-26T21:22:47.035Z,6.23
2019-02-26T21:25:16.283Z,6.25
2019-02-26T21:27:45.610Z,6.27
2019-02-26T21:30:16.755Z,6.23
2019-02-26T21:32:45.961Z,6.16
2019-02-26T21:35:15.145Z,6.08
2019-02-26T21:37:44.339Z,6.04
2019-02-26T21:40:15.904Z,5.98
2019-02-26T21:42:44.556Z,5.92
2019-02-26T21:45:15.955Z,5.88
2019-02-26T21:47:44.985Z,5.83
2019-02-26T21:50:14.853Z,5.77
2019-02-26T21:52:44.094Z,5.72
2019-02-26T21:55:13.484Z,5.67
2019-02-26T21:57:43.136Z,5.63
2019-02-26T22:00:14.319Z,5.60
2019-02-26T22:02:44.424Z,5.55
2019-02-26T22:05:13.922Z,5.49
2019-02-26T22:07:43.127Z,5.42
2019-02-26T22:10:13.448Z,5.42
2019-02-26T22:12:43.062Z,5.40
2019-02-26T22:15:13.599Z,5.40
2019-02-26T22:17:43.026Z,5.38
2019-02-26T22:20:22.050Z,5.32
2019-02-26T22:22:44.465Z,5.24
2019-02-26T22:25:17.003Z,5.18
2019-02-26T22:27:45.064Z,5.16
2019-02-26T22:30:15.845Z,5.14
2019-02-26T22:32:45.042Z,5.13
2019-02-26T22:35:14.516Z,5.06
2019-02-26T22:37:43.707Z,4.92
2019-02-26T22:40:12.904Z,4.76
2019-02-26T22:42:42.068Z,4.63
2019-02-26T22:45:11.627Z,4.53
2019-02-26T22:47:42.140Z,4.53
2019-02-26T22:50:12.648Z,4.50
2019-02-26T22:52:41.880Z,4.52
2019-02-26T22:55:16.126Z,4.48
2019-02-26T22:57:42.578Z,4.50
2019-02-26T23:01:06.073Z,4.48
2019-02-26T23:03:35.199Z,4.47
2019-02-26T23:06:04.572Z,4.43
2019-02-26T23:08:33.781Z,4.41
2019-02-26T23:11:02.915Z,4.37
2019-02-26T23:13:32.619Z,4.31
2019-02-26T23:16:02.209Z,4.28
2019-02-26T23:18:31.623Z,4.26
2019-02-26T23:21:01.035Z,4.22
2019-02-26T23:23:30.359Z,4.17
2019-02-26T23:25:59.504Z,4.14
2019-02-26T23:28:28.805Z,4.10
2019-02-26T23:30:59.875Z,4.05
2019-02-26T23:33:28.816Z,4.02
2019-02-26T23:35:57.945Z,3.99
2019-02-26T23:38:27.089Z,3.94
2019-02-26T23:40:58.162Z,3.88
2019-02-26T23:43:27.112Z,3.83
2019-02-26T23:45:56.986Z,3.79
2019-02-26T23:48:26.724Z,3.77
2019-02-26T23:50:55.846Z,3.77
2019-02-26T23:53:24.942Z,3.75
2019-02-26T23:55:54.078Z,3.72
2019-02-26T23:58:23.236Z,3.68
